King Shaka International Airport


Codes: FALE/DUR
Name: King Shaka International Airport
City: Durban
Country: South Africa
Elevation: 295 ft.
Wikipedia:

Photos at King Shaka International Airport


   Photos courtesy of SpottingLog. You can add your own sightings and photos by signing up for a free trial today.



No photos found.

Weather at King Shaka International Airport


Time (UTC)DescriptionTempratureWindCloud coverageVisibilityPressureHumidity
23-May-2024 21:00Clear Sky16°C7 mph, SW0%10000m1017hPa77%
24-May-2024 00:00Clear Sky17°C11 mph, SW0%10000m1019hPa76%
24-May-2024 03:00Few Clouds18°C11 mph, SW13%10000m1021hPa78%
24-May-2024 06:00Light Rain20°C9 mph, SW54%10000m1023hPa71%
24-May-2024 09:00Light Rain23°C11 mph, S100%10000m1023hPa65%
24-May-2024 12:00Overcast Clouds23°C13 mph, S88%10000m1021hPa68%
24-May-2024 15:00Few Clouds21°C13 mph, S16%10000m1023hPa82%
24-May-2024 18:00Light Rain19°C9 mph, SW13%10000m1025hPa88%
24-May-2024 21:00Light Rain19°C7 mph, SW32%10000m1024hPa86%
25-May-2024 00:00Broken Clouds20°C7 mph, SW55%10000m1024hPa82%
25-May-2024 03:00Broken Clouds19°C4 mph, SW79%10000m1024hPa83%
25-May-2024 06:00Light Rain20°C2 mph, SW88%10000m1025hPa80%
25-May-2024 09:00Light Rain22°C2 mph, SE93%10000m1024hPa70%
25-May-2024 12:00Broken Clouds22°C9 mph, E76%10000m1021hPa68%
25-May-2024 15:00Broken Clouds21°C9 mph, NE55%10000m1021hPa75%
25-May-2024 18:00Scattered Clouds19°C9 mph, NE48%10000m1022hPa83%
25-May-2024 21:00Broken Clouds19°C7 mph, N67%10000m1021hPa85%
26-May-2024 00:00Scattered Clouds18°C9 mph, N44%10000m1019hPa88%
26-May-2024 03:00Clear Sky17°C7 mph, N0%10000m1017hPa85%
26-May-2024 06:00Clear Sky19°C7 mph, NW0%10000m1017hPa67%
26-May-2024 09:00Clear Sky24°C16 mph, S0%10000m1019hPa60%
26-May-2024 12:00Clear Sky23°C18 mph, S0%10000m1019hPa66%
26-May-2024 15:00Clear Sky20°C13 mph, S10%10000m1021hPa71%
26-May-2024 18:00Clear Sky18°C9 mph, SW7%10000m1024hPa80%
26-May-2024 21:00Clear Sky17°C9 mph, W4%10000m1025hPa78%
27-May-2024 00:00Scattered Clouds18°C7 mph, SW26%10000m1024hPa76%
27-May-2024 03:00Scattered Clouds17°C4 mph, W45%10000m1025hPa78%
27-May-2024 06:00Scattered Clouds18°C4 mph, W33%10000m1026hPa70%
27-May-2024 09:00Clear Sky22°C4 mph, SE6%10000m1026hPa58%
27-May-2024 12:00Clear Sky22°C9 mph, SE7%10000m1025hPa62%
27-May-2024 15:00Clear Sky19°C4 mph, E0%10000m1025hPa76%
27-May-2024 18:00Clear Sky18°C4 mph, NW0%10000m1027hPa83%
27-May-2024 21:00Clear Sky17°C4 mph, NW1%10000m1026hPa88%
28-May-2024 00:00Clear Sky16°C4 mph, NW1%10000m1025hPa89%
28-May-2024 03:00Scattered Clouds16°C4 mph, N31%10000m1025hPa88%
28-May-2024 06:00Broken Clouds17°C4 mph, N58%10000m1025hPa76%
28-May-2024 09:00Broken Clouds22°C9 mph, NE67%10000m1023hPa58%
28-May-2024 12:00Broken Clouds24°C11 mph, NE70%10000m1020hPa58%
28-May-2024 15:00Broken Clouds20°C11 mph, NE72%10000m1020hPa86%
28-May-2024 18:00Scattered Clouds19°C7 mph, N36%10000m1021hPa88%